グアダラハラ の空港の天気 - METARとTAF

ドン・ミゲル・イダルゴ・イ・コスティージャ国際空港 ( MMGL / GDL ) - メキシコ ハリスコ州グアダラハラ
飛行場実況気象(Metar)
観測時間07/22 12:52 CDT (07/22 17:52 UTC)
風向・風速静穏 0m/s
視程8050m
天気現象
少しの雲 雲底高度 460m
気温24℃
湿度54%
気圧1011.5hPa
METARMMGL 221752Z 00000KT 5SM FEW015 24/14 A3023 RMK SLP115 57011 903 8/100 HZY CI
過去の天気等 Google飛行場航空写真 Wunderground天気予報

過去48時間のMETAR

飛行場予報(TAF)
発表時間: 7/22 11:39 CDT (7/22 16:39 UTC)
予報対象時間: 22日13時 CDT ~ 23日19時 CDT
風向・風速西北西 5m/s
視程10km以上
全天の4割程度の雲 雲底高度 760m
全天の4割程度の雲 雲底高度 2740m
22日18時 CDT ~ 22日22時 CDT に一時的に
視程8050m
天気現象弱い雷雨
全天の8割程度の積乱雲 雲底高度 760m
全天を覆う雲 雲底高度 2740m
23日0時 CDT から
風向・風速西北西 3m/s
視程10km以上
全天の4割程度の雲 雲底高度 610m
全天の8割程度の雲 雲底高度 2740m
全天の8割程度の雲 雲底高度 7620m
23日7時 CDT から
風向・風速静穏
視程10km以上
天気現象煙霧
全天の4割程度の雲 雲底高度 460m
全天の8割程度の雲 雲底高度 3050m
全天の8割程度の雲 雲底高度 7620m
23日14時 CDT ~ 23日16時 CDT に徐々に
風向・風速南南西 5m/s
TAF MMGL 221639Z 2218/2324 30010KT P6SM SCT025 SCT090 TX29/2222Z TN14/2312Z
TEMPO 2223/2303 5SM -TSRA BKN025CB OVC090
FM230500 30005KT P6SM SCT020 BKN090 BKN250
FM231200 00000KT 6SM HZ SCT015 BKN100 BKN250
BECMG 2319/2321 20010KT